sensor_id;sensor_type;location;lat;lon;timestamp;temperature;humidity
4985;DHT22;2509;49.902;8.600;2023-05-10T00:01:55;13.40;99.90
4985;DHT22;2509;49.902;8.600;2023-05-10T00:04:57;13.40;99.90
4985;DHT22;2509;49.902;8.600;2023-05-10T00:07:58;13.30;99.90
4985;DHT22;2509;49.902;8.600;2023-05-10T00:11:00;13.30;99.90
4985;DHT22;2509;49.902;8.600;2023-05-10T00:14:04;13.20;99.90
4985;DHT22;2509;49.902;8.600;2023-05-10T00:17:05;13.30;99.90
4985;DHT22;2509;49.902;8.600;2023-05-10T00:20:08;13.20;99.90
4985;DHT22;2509;49.902;8.600;2023-05-10T00:23:10;13.20;99.90
4985;DHT22;2509;49.902;8.600;2023-05-10T00:26:12;13.20;99.90
4985;DHT22;2509;49.902;8.600;2023-05-10T00:29:15;13.10;99.90
4985;DHT22;2509;49.902;8.600;2023-05-10T00:32:17;13.20;99.90
4985;DHT22;2509;49.902;8.600;2023-05-10T00:35:18;13.10;99.90
4985;DHT22;2509;49.902;8.600;2023-05-10T00:38:21;13.10;99.90
4985;DHT22;2509;49.902;8.600;2023-05-10T00:41:23;13.10;99.90
4985;DHT22;2509;49.902;8.600;2023-05-10T00:44:26;13.10;99.90
4985;DHT22;2509;49.902;8.600;2023-05-10T00:47:28;13.10;99.90
4985;DHT22;2509;49.902;8.600;2023-05-10T00:50:31;13.10;99.90
4985;DHT22;2509;49.902;8.600;2023-05-10T00:53:34;13.10;99.90
4985;DHT22;2509;49.902;8.600;2023-05-10T00:56:36;13.10;99.90
4985;DHT22;2509;49.902;8.600;2023-05-10T00:59:39;13.10;99.90
4985;DHT22;2509;49.902;8.600;2023-05-10T01:02:41;13.10;99.90
4985;DHT22;2509;49.902;8.600;2023-05-10T01:05:43;13.20;99.90
4985;DHT22;2509;49.902;8.600;2023-05-10T01:08:45;13.20;99.90
4985;DHT22;2509;49.902;8.600;2023-05-10T01:11:48;13.20;99.90
4985;DHT22;2509;49.902;8.600;2023-05-10T01:14:52;13.20;99.90
4985;DHT22;2509;49.902;8.600;2023-05-10T01:17:54;13.30;99.90
4985;DHT22;2509;49.902;8.600;2023-05-10T01:21:06;13.30;99.90
4985;DHT22;2509;49.902;8.600;2023-05-10T01:28:07;13.20;99.90
4985;DHT22;2509;49.902;8.600;2023-05-10T01:31:22;13.20;99.90
4985;DHT22;2509;49.902;8.600;2023-05-10T01:34:35;13.20;99.90
4985;DHT22;2509;49.902;8.600;2023-05-10T01:37:43;13.20;99.90
4985;DHT22;2509;49.902;8.600;2023-05-10T01:40:54;13.10;99.90
4985;DHT22;2509;49.902;8.600;2023-05-10T01:44:09;13.10;99.90
4985;DHT22;2509;49.902;8.600;2023-05-10T01:47:17;13.10;99.90
4985;DHT22;2509;49.902;8.600;2023-05-10T01:50:27;13.10;99.90
4985;DHT22;2509;49.902;8.600;2023-05-10T01:53:31;13.10;99.90
4985;DHT22;2509;49.902;8.600;2023-05-10T01:56:35;13.10;99.90
4985;DHT22;2509;49.902;8.600;2023-05-10T01:59:38;13.10;99.90
4985;DHT22;2509;49.902;8.600;2023-05-10T02:02:45;13.10;99.90
4985;DHT22;2509;49.902;8.600;2023-05-10T02:05:49;13.10;99.90
4985;DHT22;2509;49.902;8.600;2023-05-10T02:08:52;13.10;99.90
4985;DHT22;2509;49.902;8.600;2023-05-10T02:11:55;13.10;99.90
4985;DHT22;2509;49.902;8.600;2023-05-10T02:14:59;13.10;99.90
4985;DHT22;2509;49.902;8.600;2023-05-10T02:18:02;13.10;99.90
4985;DHT22;2509;49.902;8.600;2023-05-10T02:21:08;13.10;99.90
4985;DHT22;2509;49.902;8.600;2023-05-10T02:24:11;13.00;99.90
4985;DHT22;2509;49.902;8.600;2023-05-10T02:27:14;13.10;99.90
4985;DHT22;2509;49.902;8.600;2023-05-10T02:30:18;13.10;99.90
4985;DHT22;2509;49.902;8.600;2023-05-10T02:33:21;13.10;99.90
4985;DHT22;2509;49.902;8.600;2023-05-10T02:36:25;13.10;99.90
4985;DHT22;2509;49.902;8.600;2023-05-10T02:39:28;13.00;99.90
4985;DHT22;2509;49.902;8.600;2023-05-10T02:42:33;13.00;99.90
4985;DHT22;2509;49.902;8.600;2023-05-10T02:45:37;13.00;99.90
4985;DHT22;2509;49.902;8.600;2023-05-10T02:48:40;13.00;99.90
4985;DHT22;2509;49.902;8.600;2023-05-10T02:51:47;13.00;99.90
4985;DHT22;2509;49.902;8.600;2023-05-10T02:54:54;13.00;99.90
4985;DHT22;2509;49.902;8.600;2023-05-10T02:57:58;13.10;99.90
4985;DHT22;2509;49.902;8.600;2023-05-10T03:01:00;13.00;99.90
4985;DHT22;2509;49.902;8.600;2023-05-10T03:04:02;13.00;99.90
4985;DHT22;2509;49.902;8.600;2023-05-10T03:07:05;13.00;99.90
4985;DHT22;2509;49.902;8.600;2023-05-10T03:10:08;13.00;99.90
4985;DHT22;2509;49.902;8.600;2023-05-10T03:13:16;13.00;99.90
4985;DHT22;2509;49.902;8.600;2023-05-10T03:16:24;13.00;99.90
4985;DHT22;2509;49.902;8.600;2023-05-10T03:19:32;13.00;99.90
4985;DHT22;2509;49.902;8.600;2023-05-10T03:22:44;13.10;99.90
4985;DHT22;2509;49.902;8.600;2023-05-10T03:25:48;13.10;99.90
4985;DHT22;2509;49.902;8.600;2023-05-10T03:28:51;13.10;99.90
4985;DHT22;2509;49.902;8.600;2023-05-10T03:31:53;13.10;99.90
4985;DHT22;2509;49.902;8.600;2023-05-10T03:34:55;13.10;99.90
4985;DHT22;2509;49.902;8.600;2023-05-10T03:37:59;13.10;99.90
4985;DHT22;2509;49.902;8.600;2023-05-10T03:41:01;13.00;99.90
4985;DHT22;2509;49.902;8.600;2023-05-10T03:44:03;13.10;99.90
4985;DHT22;2509;49.902;8.600;2023-05-10T03:47:04;13.10;99.90
4985;DHT22;2509;49.902;8.600;2023-05-10T03:50:07;13.10;99.90
4985;DHT22;2509;49.902;8.600;2023-05-10T03:53:12;13.10;99.90
4985;DHT22;2509;49.902;8.600;2023-05-10T03:56:13;13.10;99.90
4985;DHT22;2509;49.902;8.600;2023-05-10T03:59:15;13.00;99.90
4985;DHT22;2509;49.902;8.600;2023-05-10T04:02:17;13.00;99.90
4985;DHT22;2509;49.902;8.600;2023-05-10T04:05:19;13.00;99.90
4985;DHT22;2509;49.902;8.600;2023-05-10T04:08:22;13.00;99.90
4985;DHT22;2509;49.902;8.600;2023-05-10T04:11:23;12.90;99.90
4985;DHT22;2509;49.902;8.600;2023-05-10T04:14:25;13.00;99.90
4985;DHT22;2509;49.902;8.600;2023-05-10T04:17:27;13.00;99.90
4985;DHT22;2509;49.902;8.600;2023-05-10T04:20:29;13.00;99.90
4985;DHT22;2509;49.902;8.600;2023-05-10T04:23:32;12.90;99.90
4985;DHT22;2509;49.902;8.600;2023-05-10T04:26:34;12.90;99.90
4985;DHT22;2509;49.902;8.600;2023-05-10T04:29:36;13.00;99.90
4985;DHT22;2509;49.902;8.600;2023-05-10T04:32:38;13.00;99.90
4985;DHT22;2509;49.902;8.600;2023-05-10T04:35:40;13.00;99.90
4985;DHT22;2509;49.902;8.600;2023-05-10T04:38:44;13.10;99.90
4985;DHT22;2509;49.902;8.600;2023-05-10T04:41:45;13.10;99.90
4985;DHT22;2509;49.902;8.600;2023-05-10T04:44:47;13.10;99.90
4985;DHT22;2509;49.902;8.600;2023-05-10T04:47:49;13.10;99.90
4985;DHT22;2509;49.902;8.600;2023-05-10T04:50:50;13.20;99.90
4985;DHT22;2509;49.902;8.600;2023-05-10T04:53:54;13.20;99.90
4985;DHT22;2509;49.902;8.600;2023-05-10T04:56:55;13.20;99.90
4985;DHT22;2509;49.902;8.600;2023-05-10T04:59:57;13.10;99.90
4985;DHT22;2509;49.902;8.600;2023-05-10T05:02:59;13.10;99.90
4985;DHT22;2509;49.902;8.600;2023-05-10T05:06:02;13.10;99.90
4985;DHT22;2509;49.902;8.600;2023-05-10T05:09:05;13.10;99.90
4985;DHT22;2509;49.902;8.600;2023-05-10T05:12:07;13.10;99.90
4985;DHT22;2509;49.902;8.600;2023-05-10T05:15:14;13.20;99.90
4985;DHT22;2509;49.902;8.600;2023-05-10T05:18:17;13.10;99.90
4985;DHT22;2509;49.902;8.600;2023-05-10T05:21:19;13.10;99.90
4985;DHT22;2509;49.902;8.600;2023-05-10T05:24:23;13.10;99.90
4985;DHT22;2509;49.902;8.600;2023-05-10T05:27:25;13.10;99.90
4985;DHT22;2509;49.902;8.600;2023-05-10T05:30:28;13.10;99.90
4985;DHT22;2509;49.902;8.600;2023-05-10T05:33:34;13.10;99.90
4985;DHT22;2509;49.902;8.600;2023-05-10T05:36:39;13.00;99.90
4985;DHT22;2509;49.902;8.600;2023-05-10T05:39:42;13.10;99.90
4985;DHT22;2509;49.902;8.600;2023-05-10T05:42:44;13.10;99.90
4985;DHT22;2509;49.902;8.600;2023-05-10T05:45:46;13.10;99.90
4985;DHT22;2509;49.902;8.600;2023-05-10T05:48:48;13.10;99.90
4985;DHT22;2509;49.902;8.600;2023-05-10T05:51:50;13.10;99.90
4985;DHT22;2509;49.902;8.600;2023-05-10T05:54:53;13.10;99.90
4985;DHT22;2509;49.902;8.600;2023-05-10T05:57:55;13.20;99.90
4985;DHT22;2509;49.902;8.600;2023-05-10T06:00:56;13.20;99.90
4985;DHT22;2509;49.902;8.600;2023-05-10T06:03:58;13.30;99.90
4985;DHT22;2509;49.902;8.600;2023-05-10T06:07:00;13.30;99.90
4985;DHT22;2509;49.902;8.600;2023-05-10T06:10:04;13.20;99.90
4985;DHT22;2509;49.902;8.600;2023-05-10T06:13:06;13.30;99.90
4985;DHT22;2509;49.902;8.600;2023-05-10T06:16:08;13.40;99.90
4985;DHT22;2509;49.902;8.600;2023-05-10T06:19:10;13.40;99.90
4985;DHT22;2509;49.902;8.600;2023-05-10T06:22:11;13.40;99.90
4985;DHT22;2509;49.902;8.600;2023-05-10T06:25:15;13.40;99.90
4985;DHT22;2509;49.902;8.600;2023-05-10T06:28:18;13.40;99.90
4985;DHT22;2509;49.902;8.600;2023-05-10T06:31:20;13.40;99.90
4985;DHT22;2509;49.902;8.600;2023-05-10T06:34:21;13.50;99.90
4985;DHT22;2509;49.902;8.600;2023-05-10T06:37:23;13.50;99.90
4985;DHT22;2509;49.902;8.600;2023-05-10T06:40:26;13.60;99.90
4985;DHT22;2509;49.902;8.600;2023-05-10T06:43:28;13.50;99.90
4985;DHT22;2509;49.902;8.600;2023-05-10T06:46:30;13.50;99.90
4985;DHT22;2509;49.902;8.600;2023-05-10T06:49:32;13.70;99.90
4985;DHT22;2509;49.902;8.600;2023-05-10T06:52:34;13.80;99.90
4985;DHT22;2509;49.902;8.600;2023-05-10T06:55:37;13.80;99.90
4985;DHT22;2509;49.902;8.600;2023-05-10T06:58:39;13.80;99.90
4985;DHT22;2509;49.902;8.600;2023-05-10T07:01:40;13.80;99.90
4985;DHT22;2509;49.902;8.600;2023-05-10T07:04:42;13.80;99.90
4985;DHT22;2509;49.902;8.600;2023-05-10T07:07:44;13.80;99.90
4985;DHT22;2509;49.902;8.600;2023-05-10T07:10:47;13.90;99.90
4985;DHT22;2509;49.902;8.600;2023-05-10T07:13:49;13.90;99.90
4985;DHT22;2509;49.902;8.600;2023-05-10T07:16:51;13.90;99.90
4985;DHT22;2509;49.902;8.600;2023-05-10T07:19:52;14.00;99.90
4985;DHT22;2509;49.902;8.600;2023-05-10T07:22:54;14.10;99.90
4985;DHT22;2509;49.902;8.600;2023-05-10T07:25:57;14.10;99.90
4985;DHT22;2509;49.902;8.600;2023-05-10T07:28:59;14.10;99.90
4985;DHT22;2509;49.902;8.600;2023-05-10T07:32:01;14.20;99.90
4985;DHT22;2509;49.902;8.600;2023-05-10T07:35:04;14.20;99.90
4985;DHT22;2509;49.902;8.600;2023-05-10T07:38:05;14.30;99.90
4985;DHT22;2509;49.902;8.600;2023-05-10T07:41:09;14.30;99.90
4985;DHT22;2509;49.902;8.600;2023-05-10T07:44:11;14.40;99.90
4985;DHT22;2509;49.902;8.600;2023-05-10T07:47:12;14.50;99.90
4985;DHT22;2509;49.902;8.600;2023-05-10T07:50:14;14.60;99.90
4985;DHT22;2509;49.902;8.600;2023-05-10T07:53:16;14.60;99.90
4985;DHT22;2509;49.902;8.600;2023-05-10T07:56:24;14.50;99.90
4985;DHT22;2509;49.902;8.600;2023-05-10T07:59:27;14.50;99.90
4985;DHT22;2509;49.902;8.600;2023-05-10T08:02:29;14.50;99.90
4985;DHT22;2509;49.902;8.600;2023-05-10T08:05:31;14.50;99.90
4985;DHT22;2509;49.902;8.600;2023-05-10T08:08:35;14.40;99.90
4985;DHT22;2509;49.902;8.600;2023-05-10T08:11:39;14.50;99.90
4985;DHT22;2509;49.902;8.600;2023-05-10T08:14:41;14.50;99.90
4985;DHT22;2509;49.902;8.600;2023-05-10T08:17:43;14.40;99.90
4985;DHT22;2509;49.902;8.600;2023-05-10T08:20:45;14.30;99.90
4985;DHT22;2509;49.902;8.600;2023-05-10T08:23:46;14.30;99.90
4985;DHT22;2509;49.902;8.600;2023-05-10T08:26:51;14.30;99.90
4985;DHT22;2509;49.902;8.600;2023-05-10T08:29:53;14.20;99.90
4985;DHT22;2509;49.902;8.600;2023-05-10T08:32:55;14.20;99.90
4985;DHT22;2509;49.902;8.600;2023-05-10T08:35:56;14.10;99.90
4985;DHT22;2509;49.902;8.600;2023-05-10T08:38:58;14.00;99.90
4985;DHT22;2509;49.902;8.600;2023-05-10T08:42:19;14.00;99.90
4985;DHT22;2509;49.902;8.600;2023-05-10T08:45:24;14.20;99.90
4985;DHT22;2509;49.902;8.600;2023-05-10T08:48:28;14.30;99.90
4985;DHT22;2509;49.902;8.600;2023-05-10T08:51:35;14.50;99.90
4985;DHT22;2509;49.902;8.600;2023-05-10T08:54:37;14.70;99.90
4985;DHT22;2509;49.902;8.600;2023-05-10T08:57:41;14.90;99.90
4985;DHT22;2509;49.902;8.600;2023-05-10T09:00:43;14.90;99.90
4985;DHT22;2509;49.902;8.600;2023-05-10T09:03:46;14.90;99.90
4985;DHT22;2509;49.902;8.600;2023-05-10T09:06:48;14.90;99.90
4985;DHT22;2509;49.902;8.600;2023-05-10T09:09:50;14.90;99.90
4985;DHT22;2509;49.902;8.600;2023-05-10T09:12:56;15.00;99.90
4985;DHT22;2509;49.902;8.600;2023-05-10T09:15:58;14.90;99.90
4985;DHT22;2509;49.902;8.600;2023-05-10T09:19:00;14.90;99.90
4985;DHT22;2509;49.902;8.600;2023-05-10T09:22:02;15.00;99.90
4985;DHT22;2509;49.902;8.600;2023-05-10T09:25:05;15.10;99.90
4985;DHT22;2509;49.902;8.600;2023-05-10T09:28:09;15.30;99.90
4985;DHT22;2509;49.902;8.600;2023-05-10T09:31:11;15.30;99.90
4985;DHT22;2509;49.902;8.600;2023-05-10T09:34:16;15.10;99.90
4985;DHT22;2509;49.902;8.600;2023-05-10T09:37:18;14.90;99.90
4985;DHT22;2509;49.902;8.600;2023-05-10T09:40:30;14.70;99.90
4985;DHT22;2509;49.902;8.600;2023-05-10T09:43:40;14.50;99.90
4985;DHT22;2509;49.902;8.600;2023-05-10T09:46:41;14.40;99.90
4985;DHT22;2509;49.902;8.600;2023-05-10T09:49:43;14.40;99.90
4985;DHT22;2509;49.902;8.600;2023-05-10T09:53:10;14.40;99.90
4985;DHT22;2509;49.902;8.600;2023-05-10T09:56:35;14.40;99.90
4985;DHT22;2509;49.902;8.600;2023-05-10T10:00:27;14.50;99.90
4985;DHT22;2509;49.902;8.600;2023-05-10T10:03:33;14.60;99.90
4985;DHT22;2509;49.902;8.600;2023-05-10T10:07:06;14.70;99.90
4985;DHT22;2509;49.902;8.600;2023-05-10T10:10:14;14.90;99.90
4985;DHT22;2509;49.902;8.600;2023-05-10T10:13:27;15.00;99.90
4985;DHT22;2509;49.902;8.600;2023-05-10T10:16:52;15.00;99.90
4985;DHT22;2509;49.902;8.600;2023-05-10T10:19:57;15.20;99.90
4985;DHT22;2509;49.902;8.600;2023-05-10T10:23:14;15.30;99.90
4985;DHT22;2509;49.902;8.600;2023-05-10T10:26:17;15.40;99.90
4985;DHT22;2509;49.902;8.600;2023-05-10T10:29:33;15.30;99.90
4985;DHT22;2509;49.902;8.600;2023-05-10T10:36:45;15.10;99.90
4985;DHT22;2509;49.902;8.600;2023-05-10T10:39:55;15.00;99.90
4985;DHT22;2509;49.902;8.600;2023-05-10T10:43:34;15.00;99.90
4985;DHT22;2509;49.902;8.600;2023-05-10T10:51:07;14.40;99.90
4985;DHT22;2509;49.902;8.600;2023-05-10T10:54:21;14.10;99.90
4985;DHT22;2509;49.902;8.600;2023-05-10T10:57:32;14.00;99.90
4985;DHT22;2509;49.902;8.600;2023-05-10T11:00:36;14.00;99.90
4985;DHT22;2509;49.902;8.600;2023-05-10T11:03:38;13.80;99.90
4985;DHT22;2509;49.902;8.600;2023-05-10T11:06:40;13.90;99.90
4985;DHT22;2509;49.902;8.600;2023-05-10T11:09:44;13.80;99.90
4985;DHT22;2509;49.902;8.600;2023-05-10T11:12:52;13.70;99.90
4985;DHT22;2509;49.902;8.600;2023-05-10T11:15:54;13.70;99.90
4985;DHT22;2509;49.902;8.600;2023-05-10T11:18:59;13.80;99.90
4985;DHT22;2509;49.902;8.600;2023-05-10T11:22:13;13.80;99.90
4985;DHT22;2509;49.902;8.600;2023-05-10T11:25:16;13.80;99.90
4985;DHT22;2509;49.902;8.600;2023-05-10T11:28:18;13.90;99.90
4985;DHT22;2509;49.902;8.600;2023-05-10T11:31:23;14.00;99.90
4985;DHT22;2509;49.902;8.600;2023-05-10T11:34:30;14.40;99.90
4985;DHT22;2509;49.902;8.600;2023-05-10T11:37:34;15.30;99.90
4985;DHT22;2509;49.902;8.600;2023-05-10T11:40:44;15.80;99.90
4985;DHT22;2509;49.902;8.600;2023-05-10T11:43:50;16.10;99.90
4985;DHT22;2509;49.902;8.600;2023-05-10T11:46:57;16.40;99.90
4985;DHT22;2509;49.902;8.600;2023-05-10T11:50:06;16.60;99.90
4985;DHT22;2509;49.902;8.600;2023-05-10T11:53:08;17.00;99.90
4985;DHT22;2509;49.902;8.600;2023-05-10T11:56:11;17.40;99.90
4985;DHT22;2509;49.902;8.600;2023-05-10T11:59:14;17.30;99.90
4985;DHT22;2509;49.902;8.600;2023-05-10T12:02:16;17.30;99.90
4985;DHT22;2509;49.902;8.600;2023-05-10T12:05:18;17.30;99.90
4985;DHT22;2509;49.902;8.600;2023-05-10T12:08:21;17.30;99.90
4985;DHT22;2509;49.902;8.600;2023-05-10T12:11:26;17.40;99.90
4985;DHT22;2509;49.902;8.600;2023-05-10T12:14:28;17.70;99.90
4985;DHT22;2509;49.902;8.600;2023-05-10T12:17:33;18.00;99.90
4985;DHT22;2509;49.902;8.600;2023-05-10T12:20:35;18.20;99.90
4985;DHT22;2509;49.902;8.600;2023-05-10T12:23:38;18.20;99.90
4985;DHT22;2509;49.902;8.600;2023-05-10T12:26:41;17.90;99.90
4985;DHT22;2509;49.902;8.600;2023-05-10T12:29:43;17.80;99.90
4985;DHT22;2509;49.902;8.600;2023-05-10T12:32:45;17.70;99.90
4985;DHT22;2509;49.902;8.600;2023-05-10T12:35:49;17.50;99.90
4985;DHT22;2509;49.902;8.600;2023-05-10T12:38:51;17.60;99.90
4985;DHT22;2509;49.902;8.600;2023-05-10T12:41:54;17.70;99.90
4985;DHT22;2509;49.902;8.600;2023-05-10T12:44:56;18.10;99.90
4985;DHT22;2509;49.902;8.600;2023-05-10T12:48:00;18.60;99.90
4985;DHT22;2509;49.902;8.600;2023-05-10T12:51:02;18.70;99.90
4985;DHT22;2509;49.902;8.600;2023-05-10T12:54:04;18.60;99.90
4985;DHT22;2509;49.902;8.600;2023-05-10T12:57:07;18.60;99.90
4985;DHT22;2509;49.902;8.600;2023-05-10T13:00:10;18.80;99.90
4985;DHT22;2509;49.902;8.600;2023-05-10T13:03:12;18.40;99.90
4985;DHT22;2509;49.902;8.600;2023-05-10T13:06:13;18.10;99.90
4985;DHT22;2509;49.902;8.600;2023-05-10T13:09:15;17.90;99.90
4985;DHT22;2509;49.902;8.600;2023-05-10T13:12:18;17.80;99.90
4985;DHT22;2509;49.902;8.600;2023-05-10T13:15:20;17.50;99.90
4985;DHT22;2509;49.902;8.600;2023-05-10T13:18:22;17.50;99.90
4985;DHT22;2509;49.902;8.600;2023-05-10T13:21:24;17.10;99.90
4985;DHT22;2509;49.902;8.600;2023-05-10T13:24:27;17.10;99.90
4985;DHT22;2509;49.902;8.600;2023-05-10T13:27:30;17.00;99.90
4985;DHT22;2509;49.902;8.600;2023-05-10T13:30:32;17.10;99.90
4985;DHT22;2509;49.902;8.600;2023-05-10T13:33:33;17.00;99.90
4985;DHT22;2509;49.902;8.600;2023-05-10T13:36:35;17.20;99.90
4985;DHT22;2509;49.902;8.600;2023-05-10T13:39:37;17.00;99.90
4985;DHT22;2509;49.902;8.600;2023-05-10T13:42:40;17.30;99.90
4985;DHT22;2509;49.902;8.600;2023-05-10T13:45:42;17.70;99.90
4985;DHT22;2509;49.902;8.600;2023-05-10T13:48:44;18.00;99.90
4985;DHT22;2509;49.902;8.600;2023-05-10T13:51:45;18.20;99.90
4985;DHT22;2509;49.902;8.600;2023-05-10T13:54:47;18.80;99.90
4985;DHT22;2509;49.902;8.600;2023-05-10T13:57:50;19.00;99.90
4985;DHT22;2509;49.902;8.600;2023-05-10T14:00:52;18.50;99.90
4985;DHT22;2509;49.902;8.600;2023-05-10T14:03:54;18.20;99.90
4985;DHT22;2509;49.902;8.600;2023-05-10T14:06:56;18.70;99.90
4985;DHT22;2509;49.902;8.600;2023-05-10T14:09:58;18.80;99.90
4985;DHT22;2509;49.902;8.600;2023-05-10T14:13:01;18.60;99.90
4985;DHT22;2509;49.902;8.600;2023-05-10T14:16:04;18.20;99.90
4985;DHT22;2509;49.902;8.600;2023-05-10T14:19:05;18.20;99.90
4985;DHT22;2509;49.902;8.600;2023-05-10T14:22:07;18.20;99.90
4985;DHT22;2509;49.902;8.600;2023-05-10T14:25:09;18.10;99.90
4985;DHT22;2509;49.902;8.600;2023-05-10T14:28:12;18.10;99.90
4985;DHT22;2509;49.902;8.600;2023-05-10T14:31:14;18.10;99.90
4985;DHT22;2509;49.902;8.600;2023-05-10T14:34:17;18.20;99.90
4985;DHT22;2509;49.902;8.600;2023-05-10T14:37:19;18.30;99.90
4985;DHT22;2509;49.902;8.600;2023-05-10T14:40:21;18.40;99.90
4985;DHT22;2509;49.902;8.600;2023-05-10T14:43:24;18.40;99.90
4985;DHT22;2509;49.902;8.600;2023-05-10T14:46:27;18.50;99.90
4985;DHT22;2509;49.902;8.600;2023-05-10T14:49:30;18.60;99.90
4985;DHT22;2509;49.902;8.600;2023-05-10T14:52:32;18.90;99.90
4985;DHT22;2509;49.902;8.600;2023-05-10T14:55:34;19.30;99.90
4985;DHT22;2509;49.902;8.600;2023-05-10T14:58:37;19.30;99.90
4985;DHT22;2509;49.902;8.600;2023-05-10T15:01:39;19.20;99.90
4985;DHT22;2509;49.902;8.600;2023-05-10T15:04:42;19.20;99.90
4985;DHT22;2509;49.902;8.600;2023-05-10T15:07:44;19.20;99.90
4985;DHT22;2509;49.902;8.600;2023-05-10T15:10:46;19.00;99.90
4985;DHT22;2509;49.902;8.600;2023-05-10T15:13:50;19.00;99.90
4985;DHT22;2509;49.902;8.600;2023-05-10T15:16:52;18.90;99.90
4985;DHT22;2509;49.902;8.600;2023-05-10T15:19:54;18.90;99.90
4985;DHT22;2509;49.902;8.600;2023-05-10T15:22:55;18.80;99.90
4985;DHT22;2509;49.902;8.600;2023-05-10T15:25:57;18.60;99.90
4985;DHT22;2509;49.902;8.600;2023-05-10T15:29:00;18.50;99.90
4985;DHT22;2509;49.902;8.600;2023-05-10T15:32:02;18.50;99.90
4985;DHT22;2509;49.902;8.600;2023-05-10T15:35:05;18.50;99.90
4985;DHT22;2509;49.902;8.600;2023-05-10T15:38:07;18.40;99.90
4985;DHT22;2509;49.902;8.600;2023-05-10T15:41:09;18.50;99.90
4985;DHT22;2509;49.902;8.600;2023-05-10T15:44:13;18.50;99.90
4985;DHT22;2509;49.902;8.600;2023-05-10T15:47:15;18.50;99.90
4985;DHT22;2509;49.902;8.600;2023-05-10T15:50:17;18.50;99.90
4985;DHT22;2509;49.902;8.600;2023-05-10T15:53:19;18.60;99.90
4985;DHT22;2509;49.902;8.600;2023-05-10T15:56:21;18.60;99.90
4985;DHT22;2509;49.902;8.600;2023-05-10T15:59:24;18.70;99.90
4985;DHT22;2509;49.902;8.600;2023-05-10T16:02:26;18.70;99.90
4985;DHT22;2509;49.902;8.600;2023-05-10T16:05:28;18.50;99.90
4985;DHT22;2509;49.902;8.600;2023-05-10T16:08:32;18.40;99.90
4985;DHT22;2509;49.902;8.600;2023-05-10T16:11:34;18.30;99.90
4985;DHT22;2509;49.902;8.600;2023-05-10T16:14:38;18.30;99.90
4985;DHT22;2509;49.902;8.600;2023-05-10T16:17:39;18.20;99.90
4985;DHT22;2509;49.902;8.600;2023-05-10T16:20:41;18.20;99.90
4985;DHT22;2509;49.902;8.600;2023-05-10T16:23:44;18.20;99.90
4985;DHT22;2509;49.902;8.600;2023-05-10T16:26:46;18.40;99.90
4985;DHT22;2509;49.902;8.600;2023-05-10T16:29:49;18.60;99.90
4985;DHT22;2509;49.902;8.600;2023-05-10T16:32:51;18.60;99.90
4985;DHT22;2509;49.902;8.600;2023-05-10T16:35:52;18.60;99.90
4985;DHT22;2509;49.902;8.600;2023-05-10T16:38:55;18.70;99.90
4985;DHT22;2509;49.902;8.600;2023-05-10T16:41:56;18.70;99.90
4985;DHT22;2509;49.902;8.600;2023-05-10T16:44:59;18.70;99.90
4985;DHT22;2509;49.902;8.600;2023-05-10T16:48:06;18.70;99.90
4985;DHT22;2509;49.902;8.600;2023-05-10T16:51:08;18.70;99.90
4985;DHT22;2509;49.902;8.600;2023-05-10T16:54:10;18.60;99.90
4985;DHT22;2509;49.902;8.600;2023-05-10T16:57:12;18.60;99.90
4985;DHT22;2509;49.902;8.600;2023-05-10T17:00:16;18.60;99.90
4985;DHT22;2509;49.902;8.600;2023-05-10T17:03:20;18.60;99.90
4985;DHT22;2509;49.902;8.600;2023-05-10T17:06:22;18.60;99.90
4985;DHT22;2509;49.902;8.600;2023-05-10T17:09:23;18.60;99.90
4985;DHT22;2509;49.902;8.600;2023-05-10T17:12:25;18.50;99.90
4985;DHT22;2509;49.902;8.600;2023-05-10T17:15:28;18.50;99.90
4985;DHT22;2509;49.902;8.600;2023-05-10T17:18:30;18.40;99.90
4985;DHT22;2509;49.902;8.600;2023-05-10T17:21:32;18.30;99.90
4985;DHT22;2509;49.902;8.600;2023-05-10T17:24:34;18.20;99.90
4985;DHT22;2509;49.902;8.600;2023-05-10T17:27:35;18.20;99.90
4985;DHT22;2509;49.902;8.600;2023-05-10T17:30:38;18.10;99.90
4985;DHT22;2509;49.902;8.600;2023-05-10T17:33:40;18.00;99.90
4985;DHT22;2509;49.902;8.600;2023-05-10T17:36:42;17.90;99.90
4985;DHT22;2509;49.902;8.600;2023-05-10T17:39:44;17.90;99.90
4985;DHT22;2509;49.902;8.600;2023-05-10T17:42:46;17.70;99.90
4985;DHT22;2509;49.902;8.600;2023-05-10T17:45:49;17.70;99.90
4985;DHT22;2509;49.902;8.600;2023-05-10T17:48:51;17.70;99.90
4985;DHT22;2509;49.902;8.600;2023-05-10T17:51:52;17.70;99.90
4985;DHT22;2509;49.902;8.600;2023-05-10T17:54:54;17.60;99.90
4985;DHT22;2509;49.902;8.600;2023-05-10T17:57:56;17.50;99.90
4985;DHT22;2509;49.902;8.600;2023-05-10T18:01:01;17.40;99.90
4985;DHT22;2509;49.902;8.600;2023-05-10T18:04:03;17.40;99.90
4985;DHT22;2509;49.902;8.600;2023-05-10T18:07:05;17.30;99.90
4985;DHT22;2509;49.902;8.600;2023-05-10T18:10:09;17.30;99.90
4985;DHT22;2509;49.902;8.600;2023-05-10T18:13:11;17.30;99.90
4985;DHT22;2509;49.902;8.600;2023-05-10T18:16:14;17.30;99.90
4985;DHT22;2509;49.902;8.600;2023-05-10T18:19:16;17.20;99.90
4985;DHT22;2509;49.902;8.600;2023-05-10T18:22:17;17.20;99.90
4985;DHT22;2509;49.902;8.600;2023-05-10T18:25:19;17.10;99.90
4985;DHT22;2509;49.902;8.600;2023-05-10T18:28:21;17.10;99.90
4985;DHT22;2509;49.902;8.600;2023-05-10T18:31:25;17.00;99.90
4985;DHT22;2509;49.902;8.600;2023-05-10T18:34:27;16.90;99.90
4985;DHT22;2509;49.902;8.600;2023-05-10T18:37:29;16.80;99.90
4985;DHT22;2509;49.902;8.600;2023-05-10T18:40:31;16.80;99.90
4985;DHT22;2509;49.902;8.600;2023-05-10T18:43:32;16.80;99.90
4985;DHT22;2509;49.902;8.600;2023-05-10T18:46:36;16.70;99.90
4985;DHT22;2509;49.902;8.600;2023-05-10T18:49:37;16.70;99.90
4985;DHT22;2509;49.902;8.600;2023-05-10T18:52:39;16.60;99.90
4985;DHT22;2509;49.902;8.600;2023-05-10T18:55:41;16.50;99.90
4985;DHT22;2509;49.902;8.600;2023-05-10T18:58:44;16.40;99.90
4985;DHT22;2509;49.902;8.600;2023-05-10T19:01:47;16.30;99.90
4985;DHT22;2509;49.902;8.600;2023-05-10T19:04:49;16.30;99.90
4985;DHT22;2509;49.902;8.600;2023-05-10T19:07:50;16.20;99.90
4985;DHT22;2509;49.902;8.600;2023-05-10T19:10:58;16.10;99.90
4985;DHT22;2509;49.902;8.600;2023-05-10T19:14:05;16.00;99.90
4985;DHT22;2509;49.902;8.600;2023-05-10T19:17:14;15.90;99.90
4985;DHT22;2509;49.902;8.600;2023-05-10T19:20:20;15.80;99.90
4985;DHT22;2509;49.902;8.600;2023-05-10T19:23:25;15.80;99.90
4985;DHT22;2509;49.902;8.600;2023-05-10T19:26:29;15.70;99.90
4985;DHT22;2509;49.902;8.600;2023-05-10T19:29:37;15.60;99.90
4985;DHT22;2509;49.902;8.600;2023-05-10T19:32:56;15.50;99.90
4985;DHT22;2509;49.902;8.600;2023-05-10T19:35:58;15.50;99.90
4985;DHT22;2509;49.902;8.600;2023-05-10T19:39:07;15.40;99.90
4985;DHT22;2509;49.902;8.600;2023-05-10T19:42:09;15.30;99.90
4985;DHT22;2509;49.902;8.600;2023-05-10T19:45:13;15.30;99.90
4985;DHT22;2509;49.902;8.600;2023-05-10T19:48:19;15.20;99.90
4985;DHT22;2509;49.902;8.600;2023-05-10T19:51:26;15.20;99.90
4985;DHT22;2509;49.902;8.600;2023-05-10T19:54:28;15.10;99.90
4985;DHT22;2509;49.902;8.600;2023-05-10T19:57:30;15.10;99.90
4985;DHT22;2509;49.902;8.600;2023-05-10T20:00:31;14.90;99.90
4985;DHT22;2509;49.902;8.600;2023-05-10T20:03:35;14.90;99.90
4985;DHT22;2509;49.902;8.600;2023-05-10T20:06:36;14.90;99.90
4985;DHT22;2509;49.902;8.600;2023-05-10T20:09:38;14.90;99.90
4985;DHT22;2509;49.902;8.600;2023-05-10T20:12:40;14.90;99.90